Time;durP1;ratioP1;P1;durP2;ratioP2;P2;SDS_P1;SDS_P2;PMS_P1;PMS_P2;Temp;Humidity;BMP_temperature;BMP_pressure;BME280_temperature;BME280_humidity;BME280_pressure;Samples;Min_cycle;Max_cycle;Signal;HPM_P1;HPM_P2
2024/02/03 00:01:39;;;;;;;27.17;16.50;;;;;;;8.32;100.00;102413.97;5073275;28;20372;-56
2024/02/03 00:04:08;;;;;;;28.35;17.23;;;;;;;8.32;100.00;102400.84;5073037;28;20048;-57
2024/02/03 00:06:38;;;;;;;25.13;16.70;;;;;;;8.34;100.00;102400.81;5071290;28;20099;-56
2024/02/03 00:09:06;;;;;;;27.88;17.55;;;;;;;8.35;100.00;102402.53;5068318;28;20040;-57
2024/02/03 00:11:35;;;;;;;27.23;17.25;;;;;;;8.36;100.00;102393.78;5073041;28;20368;-56
2024/02/03 00:14:03;;;;;;;27.60;17.48;;;;;;;8.40;100.00;102393.59;5071423;28;20633;-57
2024/02/03 00:16:32;;;;;;;25.85;17.40;;;;;;;8.40;100.00;102400.63;5069115;28;20055;-56
2024/02/03 00:19:00;;;;;;;23.52;16.77;;;;;;;8.40;100.00;102390.16;5069345;28;20059;-56
2024/02/03 00:21:30;;;;;;;26.10;16.13;;;;;;;8.38;100.00;102390.16;5069299;28;20045;-57
2024/02/03 00:23:58;;;;;;;24.20;15.45;;;;;;;8.36;100.00;102394.63;5069763;28;20135;-56
2024/02/03 00:26:26;;;;;;;24.15;16.33;;;;;;;8.35;100.00;102390.28;5069568;28;20051;-56
2024/02/03 00:28:55;;;;;;;23.65;16.40;;;;;;;8.37;100.00;102384.97;5069251;28;20041;-57
2024/02/03 00:31:23;;;;;;;28.10;16.08;;;;;;;8.36;100.00;102386.75;5068176;28;20052;-57
2024/02/03 00:33:51;;;;;;;24.20;15.35;;;;;;;8.39;100.00;102393.66;5069354;28;20047;-47
2024/02/03 00:36:22;;;;;;;23.60;15.55;;;;;;;8.37;100.00;102392.84;5072256;28;20055;-47
2024/02/03 00:38:52;;;;;;;22.98;16.00;;;;;;;8.34;100.00;102388.53;5072894;28;20041;-47
2024/02/03 00:41:21;;;;;;;27.38;16.33;;;;;;;8.40;100.00;102390.16;5071409;28;20492;-48
2024/02/03 00:43:49;;;;;;;27.20;16.17;;;;;;;8.39;100.00;102385.78;5069535;28;20054;-46
2024/02/03 00:46:17;;;;;;;25.02;15.85;;;;;;;8.40;100.00;102395.38;5068423;28;20044;-47
2024/02/03 00:48:45;;;;;;;24.35;15.77;;;;;;;8.42;100.00;102388.31;5069489;28;20503;-45
2024/02/03 00:51:14;;;;;;;24.90;16.80;;;;;;;8.38;100.00;102391.94;5069187;28;20048;-46
2024/02/03 00:53:42;;;;;;;24.35;16.17;;;;;;;8.40;100.00;102395.38;5072482;28;20582;-46
2024/02/03 00:56:12;;;;;;;26.40;16.55;;;;;;;8.37;100.00;102385.84;5072264;28;20052;-47
2024/02/03 00:58:40;;;;;;;27.52;16.98;;;;;;;8.38;100.00;102397.19;5072491;28;20044;-48
2024/02/03 01:01:09;;;;;;;24.02;16.60;;;;;;;8.39;100.00;102389.25;5072233;28;20090;-46
2024/02/03 01:03:37;;;;;;;26.98;16.42;;;;;;;8.36;100.00;102386.75;5072136;28;20060;-48
2024/02/03 01:06:05;;;;;;;24.65;16.35;;;;;;;8.41;100.00;102390.09;5069060;28;20552;-51
2024/02/03 01:08:34;;;;;;;25.73;16.73;;;;;;;8.41;100.00;102386.59;5069017;28;20124;-48
2024/02/03 01:11:02;;;;;;;25.98;16.17;;;;;;;8.39;100.00;102388.41;5070148;28;20123;-46
2024/02/03 01:13:31;;;;;;;27.15;15.38;;;;;;;8.39;100.00;102384.03;5072200;28;20043;-47
2024/02/03 01:16:00;;;;;;;21.60;14.20;;;;;;;8.40;100.00;102387.53;5068343;28;20044;-48
2024/02/03 01:18:28;;;;;;;24.52;14.65;;;;;;;8.42;100.00;102383.06;5073055;28;20131;-46
2024/02/03 01:20:57;;;;;;;24.40;14.20;;;;;;;8.42;100.00;102383.91;5073749;28;20051;-46
2024/02/03 01:23:25;;;;;;;23.50;14.70;;;;;;;8.43;100.00;102379.56;5076046;28;20443;-46
2024/02/03 01:25:53;;;;;;;25.15;14.15;;;;;;;8.47;100.00;102381.19;5076489;28;20052;-48
2024/02/03 01:28:23;;;;;;;22.23;13.35;;;;;;;8.42;100.00;102375.22;5076093;28;20106;-49
2024/02/03 01:30:53;;;;;;;23.48;13.48;;;;;;;8.42;100.00;102369.97;5076040;28;20048;-50
2024/02/03 01:33:21;;;;;;;22.70;13.77;;;;;;;8.40;100.00;102379.66;5074904;28;20120;-50
2024/02/03 01:35:52;;;;;;;21.77;13.52;;;;;;;8.39;100.00;102376.16;5072762;28;20915;-48
2024/02/03 01:38:20;;;;;;;21.95;12.43;;;;;;;8.44;100.00;102370.78;5074500;28;20049;-46
2024/02/03 01:40:48;;;;;;;21.92;12.48;;;;;;;8.41;100.00;102363.88;5075531;28;20047;-47
2024/02/03 01:43:16;;;;;;;24.10;12.38;;;;;;;8.43;100.00;102363.81;5073245;28;20040;-46
2024/02/03 01:45:45;;;;;;;19.10;11.98;;;;;;;8.44;100.00;102361.16;5070933;28;20044;-46
2024/02/03 01:48:15;;;;;;;21.13;11.20;;;;;;;8.46;100.00;102364.59;5072491;28;20048;-47
2024/02/03 01:50:49;;;;;;;20.13;12.27;;;;;;;8.46;100.00;102372.47;5073994;28;20048;-46
2024/02/03 01:53:19;;;;;;;18.88;10.90;;;;;;;8.48;100.00;102372.44;5075467;28;20048;-47
2024/02/03 01:55:49;;;;;;;17.60;10.32;;;;;;;8.47;100.00;102368.09;5074347;28;20165;-46
2024/02/03 01:58:17;;;;;;;18.08;10.13;;;;;;;8.50;100.00;102365.38;5075756;28;20060;-47
2024/02/03 02:00:46;;;;;;;19.98;11.50;;;;;;;8.50;100.00;102359.28;5075611;28;20488;-50
2024/02/03 02:03:16;;;;;;;18.58;10.70;;;;;;;8.51;100.00;102356.59;5075463;28;20064;-47
2024/02/03 02:05:45;;;;;;;21.00;10.48;;;;;;;8.49;100.00;102358.41;5075115;28;20056;-47
2024/02/03 02:08:14;;;;;;;18.45;10.20;;;;;;;8.51;100.00;102363.59;5073609;28;20059;-48
2024/02/03 02:10:42;;;;;;;17.33;10.52;;;;;;;8.51;100.00;102367.09;5071717;28;20080;-48
2024/02/03 02:13:10;;;;;;;18.27;10.13;;;;;;;8.55;100.00;102357.34;5073349;28;20128;-46
2024/02/03 02:15:38;;;;;;;17.65;10.25;;;;;;;8.60;100.00;102355.44;5072192;28;20048;-46
2024/02/03 02:18:07;;;;;;;16.48;9.43;;;;;;;8.61;100.00;102351.91;5071826;28;20063;-47
2024/02/03 02:20:37;;;;;;;17.10;10.38;;;;;;;8.60;100.00;102356.31;5074730;28;20106;-47
2024/02/03 02:23:05;;;;;;;17.42;10.38;;;;;;;8.57;100.00;102353.75;5075245;28;20049;-45
2024/02/03 02:25:33;;;;;;;18.83;10.45;;;;;;;8.54;100.00;102339.91;5075218;28;20119;-47
2024/02/03 02:28:01;;;;;;;17.83;10.68;;;;;;;8.58;100.00;102352.84;5074722;28;20045;-47
2024/02/03 02:30:33;;;;;;;19.38;10.50;;;;;;;8.52;100.00;102342.59;5075264;28;20049;-47
2024/02/03 02:33:03;;;;;;;17.95;10.75;;;;;;;8.55;100.00;102345.09;5071739;28;20079;-48
2024/02/03 02:35:31;;;;;;;17.77;10.07;;;;;;;8.56;100.00;102344.19;5071881;28;20048;-47
2024/02/03 02:38:01;;;;;;;18.83;9.88;;;;;;;8.55;100.00;102346.84;5075008;28;20430;-46
2024/02/03 02:40:29;;;;;;;18.90;9.60;;;;;;;8.57;100.00;102345.88;5074878;28;20048;-48
2024/02/03 02:42:57;;;;;;;15.98;9.77;;;;;;;8.56;100.00;102344.19;5074892;28;20091;-45
2024/02/03 02:45:25;;;;;;;18.40;10.10;;;;;;;8.52;100.00;102342.59;5074724;28;20426;-46
2024/02/03 02:47:53;;;;;;;17.83;9.57;;;;;;;8.54;100.00;102339.91;5074311;28;20094;-48
2024/02/03 02:50:22;;;;;;;16.25;9.00;;;;;;;8.52;100.00;102346.94;5074299;28;20060;-52
2024/02/03 02:52:50;;;;;;;17.83;9.80;;;;;;;8.51;100.00;102350.47;5074332;28;20040;-48
2024/02/03 02:55:20;;;;;;;18.75;9.30;;;;;;;8.50;100.00;102347.00;5071397;28;20053;-46
2024/02/03 02:57:48;;;;;;;18.38;9.45;;;;;;;8.48;100.00;102337.47;5071105;28;20051;-47
2024/02/03 03:00:20;;;;;;;17.15;9.23;;;;;;;8.48;100.00;102346.22;5074524;28;20098;-47
2024/02/03 03:02:48;;;;;;;16.10;8.90;;;;;;;8.49;100.00;102340.03;5074038;28;20040;-47
2024/02/03 03:05:16;;;;;;;19.60;9.90;;;;;;;8.48;100.00;102340.97;5072893;28;20056;-47
2024/02/03 03:07:44;;;;;;;18.63;10.00;;;;;;;8.43;100.00;102333.19;5071252;28;20785;-49
2024/02/03 03:10:12;;;;;;;17.98;9.68;;;;;;;8.40;100.00;102333.31;5069735;28;20136;-47
2024/02/03 03:12:42;;;;;;;16.83;9.93;;;;;;;8.40;100.00;102330.69;5069387;28;20135;-48
2024/02/03 03:15:10;;;;;;;16.38;9.85;;;;;;;8.43;100.00;102325.34;5073978;28;20059;-46
2024/02/03 03:17:39;;;;;;;16.50;9.55;;;;;;;8.40;100.00;102321.97;5074138;28;20044;-50
2024/02/03 03:20:09;;;;;;;16.75;9.90;;;;;;;8.39;100.00;102320.25;5074090;28;20044;-49
2024/02/03 03:22:37;;;;;;;17.42;9.85;;;;;;;8.36;100.00;102326.44;5071409;28;20094;-47
2024/02/03 03:25:06;;;;;;;20.02;10.95;;;;;;;8.40;100.00;102322.81;5070281;28;20086;-49
2024/02/03 03:27:34;;;;;;;18.85;10.00;;;;;;;8.39;100.00;102320.25;5073923;28;20037;-49
2024/02/03 03:30:08;;;;;;;21.23;10.90;;;;;;;8.38;100.00;102318.53;5073850;28;20044;-48
2024/02/03 03:32:37;;;;;;;16.70;9.98;;;;;;;8.37;100.00;102322.94;5073966;28;20127;-46
2024/02/03 03:35:06;;;;;;;17.98;11.07;;;;;;;8.37;100.00;102317.69;5073300;28;20052;-46
2024/02/03 03:37:35;;;;;;;20.42;10.85;;;;;;;8.42;100.00;102312.28;5073664;28;20037;-49
2024/02/03 03:40:03;;;;;;;15.05;9.60;;;;;;;8.42;100.00;102312.28;5072644;28;20475;-47
2024/02/03 03:42:31;;;;;;;18.35;10.20;;;;;;;8.40;100.00;102311.50;5072180;28;20408;-48
2024/02/03 03:44:59;;;;;;;18.92;11.23;;;;;;;8.43;100.00;102314.84;5069183;28;20048;-51
2024/02/03 03:47:32;;;;;;;16.67;10.80;;;;;;;8.40;100.00;102316.72;5071735;28;20051;-47
2024/02/03 03:50:00;;;;;;;18.50;11.07;;;;;;;8.42;100.00;102313.13;5073448;28;20041;-47
2024/02/03 03:52:28;;;;;;;15.55;10.75;;;;;;;8.44;100.00;102318.34;5073271;28;20044;-50
2024/02/03 03:54:56;;;;;;;17.27;10.88;;;;;;;8.40;100.00;102319.34;5072939;28;20067;-50
2024/02/03 03:57:25;;;;;;;18.20;10.68;;;;;;;8.41;100.00;102328.91;5073231;28;20072;-48
2024/02/03 03:59:53;;;;;;;19.77;11.65;;;;;;;8.39;100.00;102322.88;5073297;28;20384;-47
2024/02/03 04:02:21;;;;;;;17.50;10.98;;;;;;;8.42;100.00;102321.00;5073218;28;20157;-46
2024/02/03 04:04:50;;;;;;;16.63;10.68;;;;;;;8.42;100.00;102314.91;5073280;28;20449;-47
2024/02/03 04:07:19;;;;;;;22.27;11.23;;;;;;;8.44;100.00;102308.72;5073448;28;20070;-47
2024/02/03 04:09:48;;;;;;;15.63;11.10;;;;;;;8.46;100.00;102306.06;5073224;28;20040;-49
2024/02/03 04:12:18;;;;;;;15.43;9.90;;;;;;;8.41;100.00;102300.06;5073173;28;20059;-48
2024/02/03 04:14:47;;;;;;;18.45;10.68;;;;;;;8.43;100.00;102306.13;5073021;28;20053;-49
2024/02/03 04:17:15;;;;;;;17.50;10.23;;;;;;;8.42;100.00;102309.66;5073020;28;20044;-48
2024/02/03 04:19:43;;;;;;;17.92;11.05;;;;;;;8.43;100.00;102317.47;5073216;28;20040;-48
2024/02/03 04:22:14;;;;;;;19.10;10.95;;;;;;;8.40;100.00;102324.59;5071408;28;20106;-48
2024/02/03 04:24:42;;;;;;;19.73;11.00;;;;;;;8.41;100.00;102321.03;5072729;28;20082;-48
2024/02/03 04:27:10;;;;;;;18.25;10.23;;;;;;;8.49;100.00;102312.97;5073052;28;20052;-48
2024/02/03 04:29:39;;;;;;;14.13;10.02;;;;;;;8.49;100.00;102308.56;5072787;28;20136;-49
2024/02/03 04:32:07;;;;;;;16.17;10.40;;;;;;;8.44;100.00;102307.84;5072481;28;20492;-57
2024/02/03 04:34:35;;;;;;;17.05;10.88;;;;;;;8.46;100.00;102317.41;5072518;28;20061;-51
2024/02/03 04:37:04;;;;;;;16.95;10.07;;;;;;;8.43;100.00;102311.38;5072332;28;20048;-52
2024/02/03 04:39:34;;;;;;;17.33;10.13;;;;;;;8.49;100.00;102313.81;5072360;28;20561;-52
2024/02/03 04:42:02;;;;;;;16.48;9.65;;;;;;;8.47;100.00;102318.28;5072305;28;20047;-48
2024/02/03 04:44:30;;;;;;;14.40;9.73;;;;;;;8.43;100.00;102306.13;5072115;28;20126;-48
2024/02/03 04:46:58;;;;;;;15.68;9.55;;;;;;;8.45;100.00;102299.09;5072608;28;20395;-51
2024/02/03 04:49:26;;;;;;;16.48;9.63;;;;;;;8.46;100.00;102306.06;5073278;28;20044;-47
2024/02/03 04:51:54;;;;;;;17.70;10.45;;;;;;;8.44;100.00;102308.72;5078077;28;20476;-48
2024/02/03 04:54:23;;;;;;;17.70;9.32;;;;;;;8.44;100.00;102310.47;5079152;28;20052;-46
2024/02/03 04:56:52;;;;;;;17.10;9.48;;;;;;;8.40;100.00;102304.47;5079120;28;20162;-50
2024/02/03 04:59:20;;;;;;;14.07;9.88;;;;;;;8.45;100.00;102304.34;5079344;28;20429;-46
2024/02/03 05:01:49;;;;;;;15.45;9.38;;;;;;;8.44;100.00;102300.00;5079232;28;20047;-50
2024/02/03 05:04:17;;;;;;;16.38;8.73;;;;;;;8.42;100.00;102292.16;5078736;28;20070;-51
2024/02/03 05:06:45;;;;;;;15.95;9.32;;;;;;;8.44;100.00;102303.47;5079086;28;20102;-49
2024/02/03 05:09:16;;;;;;;15.13;9.32;;;;;;;8.44;100.00;102302.63;5079077;28;20561;-47
2024/02/03 05:11:45;;;;;;;20.08;9.90;;;;;;;8.44;100.00;102294.75;5079100;28;20048;-49
2024/02/03 05:14:14;;;;;;;15.60;9.25;;;;;;;8.45;100.00;102294.72;5079172;28;20040;-46
2024/02/03 05:16:42;;;;;;;16.30;9.65;;;;;;;8.44;100.00;102297.38;5079100;28;20055;-46
2024/02/03 05:19:12;;;;;;;15.07;9.32;;;;;;;8.41;100.00;102287.84;5078986;28;20438;-47
2024/02/03 05:21:44;;;;;;;14.85;9.02;;;;;;;8.42;100.00;102286.06;5079014;28;20055;-49
2024/02/03 05:24:12;;;;;;;19.13;8.65;;;;;;;8.40;100.00;102280.03;5077683;28;20044;-48
2024/02/03 05:26:41;;;;;;;13.60;9.10;;;;;;;8.42;100.00;102281.66;5078862;28;20391;-48
2024/02/03 05:29:09;;;;;;;19.35;10.00;;;;;;;8.42;100.00;102289.53;5078892;28;20051;-48
2024/02/03 05:31:38;;;;;;;14.63;8.50;;;;;;;8.45;100.00;102285.97;5078620;28;20119;-47
2024/02/03 05:34:06;;;;;;;12.32;8.48;;;;;;;8.45;100.00;102288.59;5078536;28;20044;-48
2024/02/03 05:36:35;;;;;;;14.00;8.50;;;;;;;8.44;100.00;102290.34;5078941;28;20044;-48
2024/02/03 05:39:07;;;;;;;16.85;8.52;;;;;;;8.43;100.00;102293.88;5078526;28;20052;-47
2024/02/03 05:41:35;;;;;;;14.07;8.88;;;;;;;8.44;100.00;102289.50;5078769;28;20056;-47
2024/02/03 05:44:04;;;;;;;17.52;8.82;;;;;;;8.51;100.00;102293.66;5078600;28;20032;-47
2024/02/03 05:46:34;;;;;;;14.52;8.73;;;;;;;8.50;100.00;102284.06;5078696;28;20494;-49
2024/02/03 05:49:04;;;;;;;14.32;8.73;;;;;;;8.49;100.00;102281.50;5077387;28;20547;-46
2024/02/03 05:51:33;;;;;;;16.83;8.00;;;;;;;8.52;100.00;102276.16;5078909;28;20055;-49
2024/02/03 05:54:01;;;;;;;15.68;9.20;;;;;;;8.52;100.00;102287.53;5078234;28;20044;-47
2024/02/03 05:56:29;;;;;;;15.13;8.38;;;;;;;8.53;100.00;102283.13;5078427;28;20056;-50
2024/02/03 05:58:58;;;;;;;14.25;7.63;;;;;;;8.49;100.00;102282.34;5078232;28;20063;-48
2024/02/03 06:01:46;;;;;;;14.15;7.90;;;;;;;8.50;100.00;102280.59;5072961;28;20045;-45
2024/02/03 06:04:15;;;;;;;15.68;8.15;;;;;;;8.53;100.00;102281.34;5072853;28;20050;-46
2024/02/03 06:06:46;;;;;;;14.38;7.75;;;;;;;8.50;100.00;102281.44;5075522;28;20093;-48
2024/02/03 06:09:15;;;;;;;15.18;7.55;;;;;;;8.49;100.00;102282.34;5075297;28;20048;-47
2024/02/03 06:11:43;;;;;;;13.65;7.63;;;;;;;8.52;100.00;102284.91;5074380;28;20055;-48
2024/02/03 06:14:11;;;;;;;15.00;6.88;;;;;;;8.50;100.00;102283.22;5074865;28;20125;-46
2024/02/03 06:16:40;;;;;;;16.33;7.03;;;;;;;8.51;100.00;102285.78;5075300;28;20475;-56
2024/02/03 06:19:08;;;;;;;14.40;7.22;;;;;;;8.50;100.00;102289.31;5075129;28;20625;-57
2024/02/03 06:21:40;;;;;;;13.43;6.78;;;;;;;8.50;100.00;102291.09;5075218;28;20514;-57
2024/02/03 06:24:09;;;;;;;13.57;7.15;;;;;;;8.53;100.00;102288.38;5072258;28;20040;-48
2024/02/03 06:26:37;;;;;;;12.82;6.53;;;;;;;8.53;100.00;102286.59;5071893;28;20583;-46
2024/02/03 06:29:07;;;;;;;17.15;7.43;;;;;;;8.56;100.00;102275.13;5071238;28;20381;-57
2024/02/03 06:31:35;;;;;;;14.90;6.28;;;;;;;8.56;100.00;102267.28;5070834;28;20056;-56
2024/02/03 06:34:03;;;;;;;10.13;5.82;;;;;;;8.54;100.00;102267.31;5073559;28;20377;-48
2024/02/03 06:36:31;;;;;;;12.57;6.57;;;;;;;8.56;100.00;102278.63;5074914;28;20044;-47
2024/02/03 06:39:01;;;;;;;12.95;5.78;;;;;;;8.57;100.00;102282.09;5071184;28;20052;-51
2024/02/03 06:41:29;;;;;;;12.50;5.88;;;;;;;8.58;100.00;102292.53;5069857;28;20131;-58
2024/02/03 06:43:57;;;;;;;13.40;5.78;;;;;;;8.58;100.00;102295.16;5070334;28;20041;-57
2024/02/03 06:46:25;;;;;;;12.55;5.90;;;;;;;8.56;100.00;102291.75;5070030;28;20044;-57
2024/02/03 06:48:53;;;;;;;14.43;5.65;;;;;;;8.60;100.00;102284.63;5071079;28;20064;-57
2024/02/03 06:51:21;;;;;;;12.63;5.63;;;;;;;8.59;100.00;102275.06;5070662;28;20068;-56
2024/02/03 06:53:50;;;;;;;13.65;5.68;;;;;;;8.57;100.00;102264.59;5071819;28;20454;-56
2024/02/03 06:56:19;;;;;;;10.40;5.18;;;;;;;8.56;100.00;102272.50;5074306;28;20063;-57
2024/02/03 06:58:48;;;;;;;14.38;6.45;;;;;;;8.55;100.00;102283.91;5073197;28;20131;-56
2024/02/03 07:01:16;;;;;;;13.82;6.03;;;;;;;8.57;100.00;102293.44;5069923;28;20040;-57
2024/02/03 07:03:44;;;;;;;13.55;5.85;;;;;;;8.60;100.00;102295.97;5071148;28;20039;-57
2024/02/03 07:06:12;;;;;;;11.98;5.95;;;;;;;8.57;100.00;102287.34;5071119;28;20442;-57
2024/02/03 07:08:43;;;;;;;14.02;6.22;;;;;;;8.57;100.00;102290.81;5072149;28;20124;-57
2024/02/03 07:11:14;;;;;;;9.30;5.45;;;;;;;8.58;100.00;102281.19;5072710;28;20583;-57
2024/02/03 07:13:44;;;;;;;14.18;6.20;;;;;;;8.59;100.00;102280.31;5069988;28;20423;-57
2024/02/03 07:16:12;;;;;;;12.20;5.45;;;;;;;8.61;100.00;102276.69;5071832;28;20441;-57
2024/02/03 07:18:40;;;;;;;12.10;5.43;;;;;;;8.59;100.00;102289.03;5071179;28;20052;-57
2024/02/03 07:21:08;;;;;;;10.13;5.18;;;;;;;8.62;100.00;102288.91;5070780;28;20114;-57
2024/02/03 07:23:36;;;;;;;10.45;5.10;;;;;;;8.60;100.00;102293.38;5070821;28;20547;-57
2024/02/03 07:26:05;;;;;;;12.57;5.40;;;;;;;8.59;100.00;102294.25;5070588;28;20127;-57
2024/02/03 07:28:33;;;;;;;12.98;5.22;;;;;;;8.57;100.00;102296.06;5070911;28;20044;-56
2024/02/03 07:31:02;;;;;;;13.93;5.70;;;;;;;8.57;100.00;102306.56;5068422;28;20036;-56
2024/02/03 07:33:31;;;;;;;14.13;5.45;;;;;;;8.59;100.00;102303.91;5070574;28;20056;-57
2024/02/03 07:35:59;;;;;;;10.23;5.22;;;;;;;8.61;100.00;102308.16;5071481;28;20101;-57
2024/02/03 07:38:28;;;;;;;15.13;5.95;;;;;;;8.67;100.00;102304.50;5072130;28;20585;-56
2024/02/03 07:40:56;;;;;;;17.10;6.40;;;;;;;8.63;100.00;102298.50;5070147;28;20500;-57
2024/02/03 07:43:24;;;;;;;15.40;5.88;;;;;;;8.59;100.00;102311.78;5070070;28;20530;-56
2024/02/03 07:45:52;;;;;;;15.48;6.10;;;;;;;8.59;100.00;102312.63;5068428;28;20059;-57
2024/02/03 07:48:21;;;;;;;15.35;5.75;;;;;;;8.60;100.00;102308.22;5070576;28;20037;-56
2024/02/03 07:50:50;;;;;;;14.18;6.18;;;;;;;8.59;100.00;102307.38;5069745;28;20052;-56
2024/02/03 07:53:18;;;;;;;13.68;7.07;;;;;;;8.60;100.00;102309.09;5069309;28;20084;-57
2024/02/03 07:55:46;;;;;;;11.77;6.55;;;;;;;8.58;100.00;102305.66;5069857;28;20057;-58
2024/02/03 07:58:14;;;;;;;15.93;7.47;;;;;;;8.60;100.00;102308.22;5070199;28;20387;-58
2024/02/03 08:00:42;;;;;;;17.02;7.30;;;;;;;8.58;100.00;102310.91;5071301;28;20048;-57
2024/02/03 08:03:12;;;;;;;15.50;7.20;;;;;;;8.60;100.00;102313.47;5069844;28;20515;-56
2024/02/03 08:05:42;;;;;;;17.33;7.80;;;;;;;8.57;100.00;102308.34;5071426;28;20041;-57
2024/02/03 08:08:11;;;;;;;16.70;8.48;;;;;;;8.57;100.00;102308.34;5070854;28;20392;-57
2024/02/03 08:10:39;;;;;;;17.35;7.95;;;;;;;8.57;100.00;102305.72;5069483;28;20048;-58
2024/02/03 08:13:10;;;;;;;16.88;7.97;;;;;;;8.56;100.00;102307.47;5069759;28;20051;-57
2024/02/03 08:15:38;;;;;;;15.15;7.60;;;;;;;8.57;100.00;102310.94;5069746;28;20123;-57
2024/02/03 08:18:07;;;;;;;19.00;8.93;;;;;;;8.57;100.00;102317.03;5073136;28;20427;-57
2024/02/03 08:20:38;;;;;;;19.65;9.15;;;;;;;8.61;100.00;102315.19;5073150;28;20502;-57
2024/02/03 08:23:07;;;;;;;18.25;8.75;;;;;;;8.64;100.00;102320.31;5072839;28;20436;-52
2024/02/03 08:25:35;;;;;;;19.88;9.20;;;;;;;8.63;100.00;102319.47;5072013;28;20116;-52
2024/02/03 08:28:04;;;;;;;20.38;9.32;;;;;;;8.62;100.00;102322.16;5072440;28;20503;-52
2024/02/03 08:30:32;;;;;;;18.30;8.43;;;;;;;8.63;100.00;102319.47;5070245;28;20040;-47
2024/02/03 08:33:01;;;;;;;16.40;8.82;;;;;;;8.65;100.00;102323.81;5069319;28;20059;-46
2024/02/03 08:35:29;;;;;;;17.48;8.68;;;;;;;8.67;100.00;102325.50;5071609;28;20545;-51
2024/02/03 08:37:57;;;;;;;17.35;8.90;;;;;;;8.63;100.00;102327.34;5072670;28;20044;-49
2024/02/03 08:40:28;;;;;;;16.75;9.00;;;;;;;8.65;100.00;102326.44;5072846;28;20048;-51
2024/02/03 08:42:56;;;;;;;24.15;9.68;;;;;;;8.67;100.00;102324.63;5072938;28;20102;-45
2024/02/03 08:45:24;;;;;;;22.83;9.43;;;;;;;8.69;100.00;102328.06;5072634;28;20157;-48
2024/02/03 08:47:52;;;;;;;18.25;8.98;;;;;;;8.68;100.00;102321.09;5073094;28;20052;-46
2024/02/03 08:50:21;;;;;;;16.80;8.60;;;;;;;8.73;100.00;102321.78;5072716;28;20058;-46
2024/02/03 08:52:49;;;;;;;18.30;8.93;;;;;;;8.70;100.00;102324.50;5072697;28;20091;-47
2024/02/03 08:55:17;;;;;;;23.70;9.15;;;;;;;8.73;100.00;102324.41;5072526;28;20065;-45
2024/02/03 08:57:47;;;;;;;16.58;8.50;;;;;;;8.73;100.00;102320.00;5072152;28;20503;-48
2024/02/03 09:00:16;;;;;;;20.23;8.35;;;;;;;8.75;100.00;102319.97;5072254;28;20079;-47
2024/02/03 09:02:44;;;;;;;19.30;9.05;;;;;;;8.74;100.00;102315.63;5069510;28;20045;-47
2024/02/03 09:05:12;;;;;;;17.05;9.27;;;;;;;8.77;100.00;102318.16;5069601;28;20044;-49
2024/02/03 09:07:40;;;;;;;16.75;9.07;;;;;;;8.77;100.00;102319.00;5072405;28;20041;-48
2024/02/03 09:10:09;;;;;;;19.73;9.30;;;;;;;8.78;100.00;102304.09;5072563;28;20049;-46
2024/02/03 09:12:37;;;;;;;20.30;8.68;;;;;;;8.82;100.00;102307.50;5072375;28;20045;-47
2024/02/03 09:15:07;;;;;;;21.58;8.73;;;;;;;8.82;100.00;102304.88;5072328;28;20040;-46
2024/02/03 09:17:35;;;;;;;18.55;9.40;;;;;;;8.86;100.00;102317.84;5072526;28;20499;-48
2024/02/03 09:20:05;;;;;;;20.77;9.50;;;;;;;8.84;100.00;102314.41;5071991;28;20052;-47
2024/02/03 09:22:33;;;;;;;16.42;8.05;;;;;;;8.85;100.00;102324.00;5072337;28;20442;-48
2024/02/03 09:25:01;;;;;;;18.13;9.18;;;;;;;8.88;100.00;102318.63;5069969;28;20084;-47
2024/02/03 09:27:29;;;;;;;18.50;8.15;;;;;;;8.93;100.00;102316.72;5069115;28;20041;-48
2024/02/03 09:29:58;;;;;;;22.15;8.82;;;;;;;8.94;100.00;102315.81;5068388;28;20511;-46
2024/02/03 09:32:28;;;;;;;20.00;8.38;;;;;;;9.00;100.00;102322.63;5071401;28;20056;-46
2024/02/03 09:34:57;;;;;;;15.85;7.82;;;;;;;9.05;100.00;102322.44;5068636;28;20041;-47
2024/02/03 09:37:25;;;;;;;14.35;7.18;;;;;;;9.03;100.00;102322.50;5069894;28;20048;-46
2024/02/03 09:39:56;;;;;;;17.48;7.45;;;;;;;9.07;100.00;102321.47;5070997;28;20048;-48
2024/02/03 09:42:25;;;;;;;18.33;7.90;;;;;;;9.10;100.00;102317.88;5070182;28;20067;-47
2024/02/03 09:44:54;;;;;;;19.17;7.32;;;;;;;9.11;100.00;102320.47;5071725;28;20554;-47
2024/02/03 09:47:22;;;;;;;19.25;8.05;;;;;;;9.13;100.00;102312.53;5071779;28;20059;-48
2024/02/03 09:49:51;;;;;;;17.83;8.75;;;;;;;9.15;100.00;102315.97;5073909;28;20551;-49
2024/02/03 09:52:20;;;;;;;16.92;8.27;;;;;;;9.16;100.00;102309.78;5075605;28;20106;-48
2024/02/03 09:54:48;;;;;;;21.30;9.20;;;;;;;9.17;100.00;102314.13;5072725;28;20058;-48
2024/02/03 09:57:17;;;;;;;24.55;9.07;;;;;;;9.22;100.00;102321.84;5070775;28;20093;-48
2024/02/03 09:59:50;;;;;;;18.98;9.88;;;;;;;9.23;100.00;102323.53;5069979;28;20403;-50
2024/02/03 10:02:18;;;;;;;16.40;8.57;;;;;;;9.23;100.00;102320.91;5072407;28;20079;-52
2024/02/03 10:04:47;;;;;;;18.45;9.05;;;;;;;9.24;100.00;102336.66;5074989;28;20052;-51
2024/02/03 10:07:20;;;;;;;17.73;8.82;;;;;;;9.24;100.00;102338.38;5073942;28;20119;-46
2024/02/03 10:09:48;;;;;;;19.20;8.38;;;;;;;9.26;100.00;102329.56;5074677;28;20131;-49
2024/02/03 10:12:19;;;;;;;14.23;8.05;;;;;;;9.25;100.00;102327.84;5074503;28;20052;-47
2024/02/03 10:15:00;;;;;;;14.38;7.78;;;;;;;9.30;100.00;102322.44;5075225;28;20427;-48
2024/02/03 10:17:28;;;;;;;15.02;7.30;;;;;;;9.28;100.00;102319.88;5074436;28;20404;-47
2024/02/03 10:19:56;;;;;;;17.05;7.53;;;;;;;9.27;100.00;102318.16;5075138;28;20407;-48
2024/02/03 10:22:26;;;;;;;13.05;7.40;;;;;;;9.33;100.00;102330.19;5074509;28;20052;-47
2024/02/03 10:24:59;;;;;;;16.10;7.38;;;;;;;9.35;100.00;102332.75;5074936;28;20040;-50
2024/02/03 10:27:27;;;;;;;16.48;6.80;;;;;;;9.38;100.00;102327.38;5074902;28;20120;-48
2024/02/03 10:29:56;;;;;;;17.45;7.15;;;;;;;9.43;100.00;102330.72;5074969;28;20044;-47
2024/02/03 10:32:24;;;;;;;15.38;6.93;;;;;;;9.42;100.00;102340.38;5074553;28;20387;-46
2024/02/03 10:34:53;;;;;;;17.77;6.35;;;;;;;9.42;100.00;102336.88;5073359;28;20049;-48
2024/02/03 10:37:21;;;;;;;13.90;6.10;;;;;;;9.41;100.00;102343.06;5073085;28;20079;-47
2024/02/03 10:39:51;;;;;;;13.35;6.20;;;;;;;9.37;100.00;102344.91;5071278;28;20132;-46
2024/02/03 10:42:21;;;;;;;15.82;5.93;;;;;;;9.35;100.00;102340.63;5073347;28;20540;-46
2024/02/03 10:44:49;;;;;;;15.18;5.57;;;;;;;9.34;100.00;102331.91;5074535;28;20047;-47
2024/02/03 10:47:21;;;;;;;12.32;5.93;;;;;;;9.32;100.00;102332.88;5073619;28;20484;-46
2024/02/03 10:49:50;;;;;;;12.05;5.28;;;;;;;9.33;100.00;102327.56;5074044;28;20045;-46
2024/02/03 10:52:21;;;;;;;12.38;6.18;;;;;;;9.34;100.00;102333.66;5074144;28;20116;-48
2024/02/03 10:54:55;;;;;;;14.35;6.13;;;;;;;9.35;100.00;102333.59;5067695;28;20084;-47
2024/02/03 10:57:25;;;;;;;16.02;6.18;;;;;;;9.39;100.00;102334.34;5070671;28;20071;-48
2024/02/03 11:00:03;;;;;;;13.80;5.57;;;;;;;9.40;100.00;102333.44;5074218;28;20066;-46
2024/02/03 11:02:31;;;;;;;11.60;5.20;;;;;;;9.40;100.00;102344.81;5072137;28;20399;-46
2024/02/03 11:04:59;;;;;;;15.27;5.97;;;;;;;9.39;100.00;102342.25;5070795;28;20115;-46
2024/02/03 11:07:31;;;;;;;13.80;6.40;;;;;;;9.40;100.00;102339.56;5072252;28;20052;-46
2024/02/03 11:10:04;;;;;;;13.95;5.20;;;;;;;9.38;100.00;102335.25;5074429;28;20102;-46
2024/02/03 11:12:34;;;;;;;14.10;5.35;;;;;;;9.40;100.00;102341.34;5074219;28;20040;-48
2024/02/03 11:15:02;;;;;;;12.30;4.85;;;;;;;9.40;100.00;102339.56;5073017;28;20048;-46
2024/02/03 11:17:31;;;;;;;13.15;5.32;;;;;;;9.39;100.00;102340.47;5073184;28;20048;-46
2024/02/03 11:20:03;;;;;;;15.15;5.03;;;;;;;9.35;100.00;102330.13;5073572;28;20049;-47
2024/02/03 11:22:31;;;;;;;12.05;5.63;;;;;;;9.32;100.00;102332.88;5073034;28;20048;-48